This is the latest recevied weather packets stored in our database for station/object W5HKR. If no packets are shown the sender has not sent any weather packets the latest 10 day(s).
| Time | Temp. | Humidity | Pressure | Rain* | Wind** | Luminosity | Snow |
|---|---|---|---|---|---|---|---|
| 1777348359 | 25.56° C | 84% | 983.4 hPa | 0 mm | - | - | - |
| 1777347808 | 18.33° C | 91% | 990.6 hPa | 0 mm | - | - | - |
| 1777347510 | 26.11° C | 83% | 983.2 hPa | 0 mm | - | - | - |
| 1777347278 | 18.33° C | 91% | 990.6 hPa | 0 mm | - | - | - |
| 1777347208 | 18.33° C | 91% | 990.6 hPa | 0 mm | - | - | - |
| 1777346908 | 18.33° C | 91% | 990.6 hPa | 0 mm | - | - | - |
| 1777346610 | 26.11° C | 82% | 983.1 hPa | 0 mm | - | - | - |
| 1777346308 | 26.11° C | 82% | 982.5 hPa | 0 mm | - | - | - |
| 1777346198 | 18.33° C | 91% | 990.6 hPa | 0 mm | - | - | - |
| 1777346008 | 26.67° C | 81% | 982.8 hPa | 0 mm | - | - | - |
| 1777345708 | 18.33° C | 91% | 990.6 hPa | 0 mm | - | - | - |
| 1777345107 | 18.33° C | 91% | 990.6 hPa | 0 mm | - | - | - |
| 1777344807 | 18.33° C | 91% | 990.6 hPa | 0 mm | - | - | - |
| 1777344039 | 26.67° C | 80% | 982.7 hPa | 0 mm | - | - | - |
| 1777343609 | 27.22° C | 80% | 982.3 hPa | 0 mm | - | - | - |
| 1777343307 | 18.33° C | 91% | 990.6 hPa | 0 mm | - | - | - |
| 1777342707 | 27.22° C | 79% | 982.1 hPa | 0 mm | - | - | - |
| 1777342408 | 27.22° C | 79% | 982.1 hPa | 0 mm | - | - | - |
| 1777342107 | 27.22° C | 79% | 982 hPa | 0 mm | - | - | - |
| 1777341507 | 27.78° C | 78% | 981.7 hPa | 0 mm | - | - | - |
| 1777340908 | 27.78° C | 77% | 981.7 hPa | 0 mm | - | - | - |
| 1777340800 | 18.33° C | 91% | 990.6 hPa | 0 mm | - | - | - |
| 1777340609 | 18.33° C | 91% | 990.6 hPa | 0 mm | - | - | - |
| 1777340008 | 28.33° C | 77% | 981.4 hPa | 0 mm | - | - | - |
| 1777339708 | 28.33° C | 76% | 981.3 hPa | 0 mm | - | - | - |
* Rain latest hour (hover to see other rain measurements)
** Current wind speed in m/s (hover to see current wind gust speed)